Time;durP1;ratioP1;P1;durP2;ratioP2;P2;SDS_P1;SDS_P2;PMS_P1;PMS_P2;Temp;Humidity;BMP_temperature;BMP_pressure;BME280_temperature;BME280_humidity;BME280_pressure;Samples;Min_cycle;Max_cycle;Signal;HPM_P1;HPM_P2
2020/12/21 00:00:57;;;;;;;7.07;2.10;;;10.80;65.30;;;;;;2103762;28;20516;-73
2020/12/21 00:01:58;;;;;;;5.60;2.53;;;10.80;65.40;;;;;;2109075;28;20040;-73
2020/12/21 00:02:59;;;;;;;5.97;2.72;;;10.70;65.40;;;;;;2112455;28;20031;-74
2020/12/21 00:03:59;;;;;;;4.97;2.20;;;10.80;65.60;;;;;;2103668;28;20032;-74
2020/12/21 00:05:00;;;;;;;4.32;2.10;;;10.70;65.50;;;;;;2104111;28;20020;-73
2020/12/21 00:06:00;;;;;;;6.40;2.30;;;10.70;65.60;;;;;;2112496;28;20122;-73
2020/12/21 00:07:01;;;;;;;6.22;2.50;;;10.70;65.70;;;;;;2112592;28;20924;-73
2020/12/21 00:08:02;;;;;;;7.60;2.60;;;10.70;65.70;;;;;;2112473;28;20429;-74
2020/12/21 00:09:03;;;;;;;10.02;2.63;;;10.70;66.40;;;;;;2111744;28;20084;-73
2020/12/21 00:10:05;;;;;;;6.72;2.33;;;10.70;65.80;;;;;;2112850;28;20020;-73
2020/12/21 00:11:06;;;;;;;5.28;2.42;;;10.70;65.80;;;;;;2111998;28;20036;-73
2020/12/21 00:12:06;;;;;;;4.70;2.35;;;10.70;65.80;;;;;;2103548;28;20020;-73
2020/12/21 00:13:07;;;;;;;6.25;2.80;;;10.70;65.80;;;;;;2103316;28;20061;-73
2020/12/21 00:14:08;;;;;;;6.10;2.35;;;10.70;65.80;;;;;;2112422;28;20028;-73
2020/12/21 00:15:09;;;;;;;8.85;2.45;;;10.70;65.80;;;;;;2112618;28;20055;-74
2020/12/21 00:16:12;;;;;;;5.75;2.40;;;10.70;65.80;;;;;;2110249;28;20039;-74
2020/12/21 00:17:13;;;;;;;4.90;1.98;;;10.70;65.90;;;;;;2112947;28;20073;-73
2020/12/21 00:18:13;;;;;;;8.90;2.58;;;10.70;65.90;;;;;;2111982;28;20035;-73
2020/12/21 00:19:18;;;;;;;8.15;2.55;;;10.70;65.90;;;;;;2111318;28;20032;-74
2020/12/21 00:20:19;;;;;;;5.93;2.40;;;10.70;65.80;;;;;;2103651;28;20046;-75
2020/12/21 00:21:19;;;;;;;6.68;2.40;;;10.70;65.80;;;;;;2103243;28;20047;-74
2020/12/21 00:22:20;;;;;;;4.40;2.17;;;10.70;65.80;;;;;;2112055;28;20023;-74
2020/12/21 00:23:20;;;;;;;6.07;2.38;;;10.70;65.80;;;;;;2112518;28;20034;-75
2020/12/21 00:24:22;;;;;;;5.22;2.17;;;10.70;65.80;;;;;;2112585;28;20038;-73
2020/12/21 00:25:22;;;;;;;7.45;2.70;;;10.70;65.90;;;;;;2112376;28;20032;-77
2020/12/21 00:26:23;;;;;;;4.90;2.53;;;10.70;65.90;;;;;;2112471;28;20019;-74
2020/12/21 00:27:23;;;;;;;6.40;2.40;;;10.70;65.90;;;;;;2112851;28;20020;-75
2020/12/21 00:28:24;;;;;;;6.10;2.58;;;10.70;65.90;;;;;;2112665;28;20024;-76
2020/12/21 00:29:25;;;;;;;6.00;2.65;;;10.70;65.90;;;;;;2111933;28;20082;-75
2020/12/21 00:30:25;;;;;;;4.78;2.53;;;10.70;65.90;;;;;;2103345;28;20020;-74
2020/12/21 00:31:31;;;;;;;9.27;2.65;;;10.70;66.00;;;;;;2103122;28;20040;-74
2020/12/21 00:32:34;;;;;;;6.32;2.40;;;10.70;66.00;;;;;;2112775;28;20047;-74
2020/12/21 00:33:35;;;;;;;6.28;2.40;;;10.70;66.00;;;;;;2113150;28;20016;-76
2020/12/21 00:34:35;;;;;;;4.57;2.25;;;10.70;66.00;;;;;;2112512;28;20055;-75
2020/12/21 00:35:36;;;;;;;4.03;2.20;;;10.70;66.00;;;;;;2113780;28;20169;-76
2020/12/21 00:36:41;;;;;;;4.68;2.10;;;10.70;66.00;;;;;;2113649;28;20035;-74
2020/12/21 00:37:42;;;;;;;7.00;2.35;;;10.70;66.10;;;;;;2113759;28;20100;-78
2020/12/21 00:38:43;;;;;;;3.22;2.13;;;10.70;65.90;;;;;;2104228;28;20531;-76
2020/12/21 00:39:43;;;;;;;4.45;2.15;;;10.70;66.00;;;;;;2105408;28;20081;-73
2020/12/21 00:40:44;;;;;;;7.43;2.22;;;10.70;66.00;;;;;;2114088;28;20048;-73
2020/12/21 00:41:44;;;;;;;4.35;2.42;;;10.70;66.00;;;;;;2105068;28;20041;-73
2020/12/21 00:42:45;;;;;;;4.30;2.10;;;10.70;66.00;;;;;;2101906;28;20062;-75
2020/12/21 00:43:47;;;;;;;6.93;2.47;;;10.70;66.00;;;;;;2105197;28;20087;-73
2020/12/21 00:44:48;;;;;;;6.13;2.50;;;10.70;66.00;;;;;;2113528;28;20031;-75
2020/12/21 00:45:49;;;;;;;6.97;2.35;;;10.70;66.10;;;;;;2104305;28;20055;-73
2020/12/21 00:46:50;;;;;;;7.13;2.40;;;10.70;66.10;;;;;;2104982;28;20027;-74
2020/12/21 00:47:50;;;;;;;8.52;2.08;;;10.70;66.00;;;;;;2113825;28;20015;-73
2020/12/21 00:48:52;;;;;;;7.50;2.47;;;10.70;66.10;;;;;;2113809;28;20031;-73
2020/12/21 00:49:52;;;;;;;6.88;2.33;;;10.70;66.10;;;;;;2113896;28;20031;-74
2020/12/21 00:50:53;;;;;;;5.97;2.20;;;10.70;66.10;;;;;;2113959;28;21199;-74
2020/12/21 00:51:54;;;;;;;6.90;2.50;;;10.60;66.10;;;;;;2114160;28;20378;-73
2020/12/21 00:52:54;;;;;;;4.57;2.35;;;10.70;66.20;;;;;;2103371;28;20429;-73
2020/12/21 00:53:55;;;;;;;3.85;2.05;;;10.60;66.10;;;;;;2105093;28;20035;-74
2020/12/21 00:54:55;;;;;;;8.00;2.75;;;10.60;66.10;;;;;;2113407;28;20343;-73
2020/12/21 00:55:56;;;;;;;6.03;1.95;;;10.60;66.10;;;;;;2114541;28;20618;-74
2020/12/21 00:56:57;;;;;;;9.57;2.67;;;10.60;66.10;;;;;;2113684;28;20020;-73
2020/12/21 00:57:57;;;;;;;5.00;2.33;;;10.60;66.10;;;;;;2113659;28;20023;-73
2020/12/21 00:58:58;;;;;;;6.90;2.33;;;10.60;66.10;;;;;;2113628;28;20030;-74
2020/12/21 00:59:59;;;;;;;5.63;2.47;;;10.60;66.10;;;;;;2113555;28;20019;-73
2020/12/21 01:01:08;;;;;;;6.03;2.45;;;10.60;66.10;;;;;;2113417;28;20035;-73
2020/12/21 01:02:08;;;;;;;7.22;2.28;;;10.60;66.20;;;;;;2114140;28;20019;-73
2020/12/21 01:03:09;;;;;;;4.80;2.70;;;10.60;66.10;;;;;;2096636;28;20873;-73
2020/12/21 01:04:09;;;;;;;6.78;2.40;;;10.60;66.20;;;;;;2096671;28;20024;-73
2020/12/21 01:05:10;;;;;;;8.23;2.35;;;10.60;66.10;;;;;;2114312;28;20323;-73
2020/12/21 01:06:15;;;;;;;10.43;2.60;;;10.60;66.20;;;;;;2113493;28;20059;-74
2020/12/21 01:07:15;;;;;;;7.85;2.35;;;10.60;66.20;;;;;;2112876;28;20036;-73
2020/12/21 01:08:16;;;;;;;4.55;2.03;;;10.60;66.30;;;;;;2114536;28;20051;-73
2020/12/21 01:09:16;;;;;;;4.85;2.03;;;10.60;66.20;;;;;;2112769;28;20027;-75
2020/12/21 01:10:17;;;;;;;7.25;2.22;;;10.60;66.30;;;;;;2114014;28;20023;-73
2020/12/21 01:11:18;;;;;;;5.20;2.58;;;10.50;66.20;;;;;;2104762;28;20028;-74
2020/12/21 01:12:18;;;;;;;9.15;2.50;;;10.60;66.30;;;;;;2104464;28;20027;-74
2020/12/21 01:13:19;;;;;;;5.45;2.53;;;10.50;66.20;;;;;;2113938;28;20023;-73
2020/12/21 01:14:19;;;;;;;5.55;2.45;;;10.50;66.20;;;;;;2113941;28;20507;-74
2020/12/21 01:15:20;;;;;;;4.43;2.25;;;10.50;66.20;;;;;;2101410;28;20024;-75
2020/12/21 01:16:21;;;;;;;9.05;2.60;;;10.50;66.20;;;;;;2100804;28;20110;-74
2020/12/21 01:17:22;;;;;;;7.80;2.30;;;10.50;66.30;;;;;;2113675;28;20644;-74
2020/12/21 01:18:22;;;;;;;8.02;2.33;;;10.50;66.30;;;;;;2104729;28;20028;-74
2020/12/21 01:19:23;;;;;;;5.32;2.03;;;10.50;66.30;;;;;;2094329;28;20024;-74
2020/12/21 01:20:24;;;;;;;5.68;2.13;;;10.50;66.30;;;;;;2105371;28;20040;-73
2020/12/21 01:21:29;;;;;;;5.43;2.10;;;10.50;66.30;;;;;;2113548;28;20062;-74
2020/12/21 01:22:29;;;;;;;6.45;2.35;;;10.50;66.40;;;;;;2112583;28;20109;-74
2020/12/21 01:23:30;;;;;;;5.35;2.00;;;10.50;66.30;;;;;;2114095;28;20090;-73
2020/12/21 01:24:31;;;;;;;6.88;2.40;;;10.50;66.40;;;;;;2113157;28;20484;-73
2020/12/21 01:25:32;;;;;;;5.60;2.03;;;10.50;66.40;;;;;;2113836;28;20059;-74
2020/12/21 01:26:32;;;;;;;5.45;2.28;;;10.50;66.40;;;;;;2113525;28;20027;-74
2020/12/21 01:27:33;;;;;;;4.25;2.20;;;10.50;66.40;;;;;;2113613;28;20034;-74
2020/12/21 01:28:33;;;;;;;4.55;2.20;;;10.50;66.40;;;;;;2113641;28;20042;-73
2020/12/21 01:29:34;;;;;;;5.28;2.17;;;10.50;66.40;;;;;;2113598;28;20124;-73
2020/12/21 01:30:34;;;;;;;5.40;2.13;;;10.50;66.40;;;;;;2113796;28;20027;-74
2020/12/21 01:31:35;;;;;;;6.50;2.13;;;10.50;66.40;;;;;;2101209;28;20020;-73
2020/12/21 01:32:35;;;;;;;6.35;2.40;;;10.50;66.40;;;;;;2101076;28;20012;-74
2020/12/21 01:33:36;;;;;;;5.28;2.30;;;10.50;66.40;;;;;;2113836;28;20047;-73
2020/12/21 01:34:36;;;;;;;4.20;1.90;;;10.50;66.40;;;;;;2113687;28;20020;-74
2020/12/21 01:35:38;;;;;;;4.38;2.15;;;10.40;66.40;;;;;;2113906;28;20035;-73
2020/12/21 01:36:39;;;;;;;6.13;2.00;;;10.50;66.40;;;;;;2104833;28;20052;-74
2020/12/21 01:37:40;;;;;;;6.15;1.90;;;10.40;66.40;;;;;;2104165;28;20035;-73
2020/12/21 01:38:40;;;;;;;4.93;2.45;;;10.40;66.50;;;;;;2112358;28;20126;-73
2020/12/21 01:39:48;;;;;;;3.72;2.00;;;10.40;66.50;;;;;;2113476;28;20151;-74
2020/12/21 01:40:48;;;;;;;4.10;1.95;;;10.40;66.50;;;;;;2113523;28;20122;-73
2020/12/21 01:41:49;;;;;;;4.22;2.45;;;10.40;66.50;;;;;;2112868;28;20447;-73
2020/12/21 01:42:49;;;;;;;4.65;1.95;;;10.40;66.50;;;;;;2112843;28;20095;-74
2020/12/21 01:43:55;;;;;;;4.38;2.00;;;10.40;67.30;;;;;;2114007;28;20039;-74
2020/12/21 01:44:56;;;;;;;3.40;1.95;;;10.40;66.60;;;;;;2113279;28;20108;-74
2020/12/21 01:45:57;;;;;;;4.50;1.95;;;10.40;66.60;;;;;;2113102;28;20097;-74
2020/12/21 01:47:00;;;;;;;5.47;2.10;;;10.40;66.60;;;;;;2111328;28;20110;-73
2020/12/21 01:48:00;;;;;;;5.35;2.00;;;10.40;66.70;;;;;;2112696;28;20066;-71
2020/12/21 01:49:01;;;;;;;4.50;2.15;;;10.40;66.70;;;;;;2113186;28;20024;-74
2020/12/21 01:50:04;;;;;;;4.25;1.92;;;10.40;66.70;;;;;;2112709;28;20059;-73
2020/12/21 01:51:06;;;;;;;4.88;2.03;;;10.40;66.70;;;;;;2113631;28;20089;-73
2020/12/21 01:52:07;;;;;;;4.50;2.03;;;10.40;66.70;;;;;;2112699;28;20019;-73
2020/12/21 01:53:10;;;;;;;3.65;2.10;;;10.40;66.70;;;;;;2112588;28;20031;-74
2020/12/21 01:54:11;;;;;;;5.40;2.08;;;10.30;66.60;;;;;;2114086;28;20038;-74
2020/12/21 01:55:11;;;;;;;4.45;1.80;;;10.40;66.70;;;;;;2113324;28;20102;-74
2020/12/21 01:56:15;;;;;;;4.50;2.20;;;10.30;66.60;;;;;;2100729;28;20043;-74
2020/12/21 01:57:16;;;;;;;6.20;2.28;;;10.40;67.40;;;;;;2101550;28;20020;-74
2020/12/21 01:58:16;;;;;;;5.20;2.05;;;10.30;66.60;;;;;;2103841;28;20012;-73
2020/12/21 01:59:17;;;;;;;8.48;2.63;;;10.30;66.60;;;;;;2113068;28;20063;-73
2020/12/21 02:00:17;;;;;;;5.80;2.17;;;10.30;66.60;;;;;;2113773;28;20035;-74
2020/12/21 02:01:19;;;;;;;6.38;2.03;;;10.30;66.60;;;;;;2112855;28;20359;-73
2020/12/21 02:02:19;;;;;;;3.92;2.45;;;10.30;66.60;;;;;;2104657;28;20478;-74
2020/12/21 02:03:20;;;;;;;5.55;2.13;;;10.30;66.60;;;;;;2103838;28;20035;-74
2020/12/21 02:04:20;;;;;;;3.88;1.83;;;10.30;66.60;;;;;;2113384;28;20031;-75
2020/12/21 02:05:21;;;;;;;4.55;1.83;;;10.30;66.60;;;;;;2113795;28;20039;-74
2020/12/21 02:06:24;;;;;;;7.88;2.50;;;10.30;66.60;;;;;;2113283;28;20514;-74
2020/12/21 02:07:27;;;;;;;7.82;2.33;;;10.30;66.70;;;;;;2112750;28;20707;-74
2020/12/21 02:08:28;;;;;;;6.07;2.42;;;10.30;66.70;;;;;;2112542;28;20039;-74
2020/12/21 02:09:28;;;;;;;8.52;2.17;;;10.20;66.60;;;;;;2113181;28;20059;-74
2020/12/21 02:10:31;;;;;;;6.68;2.33;;;10.30;66.70;;;;;;2113703;28;20036;-74
2020/12/21 02:11:32;;;;;;;4.63;2.10;;;10.20;66.60;;;;;;2113235;28;20096;-73
2020/12/21 02:12:32;;;;;;;6.45;2.25;;;10.20;66.60;;;;;;2113511;28;20403;-74
2020/12/21 02:13:33;;;;;;;5.43;1.83;;;10.20;67.30;;;;;;2111827;28;20606;-74
2020/12/21 02:14:34;;;;;;;4.53;2.08;;;10.20;66.60;;;;;;2113126;28;20032;-73
2020/12/21 02:15:34;;;;;;;7.38;2.10;;;10.20;66.60;;;;;;2113710;28;20118;-74
2020/12/21 02:16:36;;;;;;;2.75;1.77;;;10.20;66.60;;;;;;2112152;28;20071;-74
2020/12/21 02:17:36;;;;;;;6.05;2.22;;;10.20;66.60;;;;;;2104118;28;20066;-74
2020/12/21 02:18:37;;;;;;;6.50;2.25;;;10.20;66.60;;;;;;2104018;28;20032;-73
2020/12/21 02:19:38;;;;;;;5.38;2.13;;;10.20;66.60;;;;;;2104753;28;20039;-74
2020/12/21 02:20:38;;;;;;;6.43;2.15;;;10.20;66.60;;;;;;2104951;28;20438;-74
2020/12/21 02:21:39;;;;;;;3.97;1.98;;;10.20;66.60;;;;;;2113330;28;20469;-74
2020/12/21 02:22:39;;;;;;;7.55;2.33;;;10.20;66.60;;;;;;2113037;28;20494;-75
2020/12/21 02:23:40;;;;;;;5.78;2.30;;;10.20;66.60;;;;;;2112903;28;20358;-74
2020/12/21 02:24:40;;;;;;;3.17;1.95;;;10.20;67.30;;;;;;2112991;28;20031;-73
2020/12/21 02:25:41;;;;;;;7.60;2.40;;;10.20;66.60;;;;;;2112973;28;20035;-76
2020/12/21 02:26:41;;;;;;;5.88;2.20;;;10.20;66.60;;;;;;2113196;28;20040;-74
2020/12/21 02:27:42;;;;;;;3.78;1.92;;;10.20;66.60;;;;;;2113339;28;20055;-73
2020/12/21 02:28:43;;;;;;;5.32;1.80;;;10.20;66.60;;;;;;2111349;28;20060;-74
2020/12/21 02:29:43;;;;;;;5.07;2.13;;;10.10;66.50;;;;;;2112965;28;20027;-74
2020/12/21 02:30:44;;;;;;;4.63;2.08;;;10.20;66.60;;;;;;2113168;28;20377;-75
2020/12/21 02:31:44;;;;;;;5.25;2.10;;;10.20;66.60;;;;;;2112654;28;20560;-74
2020/12/21 02:32:45;;;;;;;2.70;1.90;;;10.20;66.60;;;;;;2113301;28;20042;-74
2020/12/21 02:33:46;;;;;;;4.32;1.77;;;10.10;67.20;;;;;;2112978;28;20048;-74
2020/12/21 02:34:47;;;;;;;8.10;2.28;;;10.10;66.60;;;;;;2113139;28;20027;-74
2020/12/21 02:35:47;;;;;;;4.22;2.22;;;10.10;66.50;;;;;;2113571;28;20614;-74
2020/12/21 02:36:48;;;;;;;3.97;1.85;;;10.10;66.60;;;;;;2104379;28;20016;-73
2020/12/21 02:37:48;;;;;;;4.45;1.77;;;10.10;66.60;;;;;;2095237;28;20087;-74
2020/12/21 02:38:49;;;;;;;5.43;2.00;;;10.10;66.60;;;;;;2103971;28;20036;-73
2020/12/21 02:39:50;;;;;;;3.25;2.08;;;10.10;66.50;;;;;;2113085;28;20168;-74
2020/12/21 02:40:50;;;;;;;2.28;1.92;;;10.10;66.60;;;;;;2112935;28;20339;-74
2020/12/21 02:41:51;;;;;;;4.82;1.73;;;10.10;66.60;;;;;;2113300;28;20789;-74
2020/12/21 02:42:52;;;;;;;2.42;1.83;;;10.10;66.60;;;;;;2112669;28;20020;-73
2020/12/21 02:43:52;;;;;;;6.30;1.88;;;10.10;66.60;;;;;;2112915;28;20458;-73
2020/12/21 02:44:53;;;;;;;5.55;1.90;;;10.10;66.60;;;;;;2113220;28;20034;-73
2020/12/21 02:45:54;;;;;;;4.05;1.67;;;10.10;66.60;;;;;;2103767;28;20028;-74
2020/12/21 02:46:54;;;;;;;5.20;2.17;;;10.10;66.60;;;;;;2103935;28;20055;-73
2020/12/21 02:47:55;;;;;;;4.20;1.83;;;10.10;66.70;;;;;;2113088;28;20401;-74
2020/12/21 02:48:55;;;;;;;7.65;2.00;;;10.10;66.70;;;;;;2112444;28;20626;-74
2020/12/21 02:49:56;;;;;;;4.13;1.63;;;10.10;66.60;;;;;;2113137;28;20042;-74
2020/12/21 02:50:56;;;;;;;4.03;2.28;;;10.10;66.70;;;;;;2112981;28;20035;-74
2020/12/21 02:51:57;;;;;;;5.10;2.08;;;10.10;66.70;;;;;;2112351;28;20066;-74
2020/12/21 02:52:57;;;;;;;5.05;1.88;;;10.10;66.70;;;;;;2103547;28;20071;-73
2020/12/21 02:53:58;;;;;;;4.55;1.88;;;10.00;66.60;;;;;;2104007;28;20020;-73
2020/12/21 02:54:58;;;;;;;5.60;2.45;;;10.00;66.60;;;;;;2112875;28;20016;-73
2020/12/21 02:55:59;;;;;;;4.25;1.80;;;10.00;66.60;;;;;;2112811;28;20026;-74
2020/12/21 02:57:00;;;;;;;6.95;2.00;;;10.00;66.60;;;;;;2103598;28;20036;-74
2020/12/21 02:58:00;;;;;;;4.15;1.50;;;10.00;66.60;;;;;;2103861;28;20015;-74
2020/12/21 02:59:01;;;;;;;4.88;1.90;;;10.00;66.70;;;;;;2103637;28;20090;-73
2020/12/21 03:00:05;;;;;;;7.30;2.20;;;10.00;66.60;;;;;;2104221;28;20026;-74
2020/12/21 03:01:06;;;;;;;6.18;1.90;;;10.00;66.60;;;;;;2112199;28;20024;-73
2020/12/21 03:02:07;;;;;;;4.75;2.10;;;10.00;66.60;;;;;;2113024;28;20042;-73
2020/12/21 03:03:07;;;;;;;3.50;1.88;;;10.00;66.60;;;;;;2112691;28;20502;-74
2020/12/21 03:04:08;;;;;;;6.40;1.92;;;10.00;66.60;;;;;;2113115;28;20103;-75
2020/12/21 03:05:08;;;;;;;3.67;1.73;;;10.00;66.50;;;;;;2112948;28;20561;-74
2020/12/21 03:06:09;;;;;;;5.03;1.88;;;10.00;66.60;;;;;;2112695;28;20401;-74
2020/12/21 03:07:09;;;;;;;5.10;2.13;;;10.00;66.60;;;;;;2112939;28;20055;-74
2020/12/21 03:08:11;;;;;;;5.47;1.95;;;10.00;66.60;;;;;;2113067;28;20031;-73
2020/12/21 03:09:11;;;;;;;5.20;1.92;;;10.00;66.60;;;;;;2111483;28;20325;-74
2020/12/21 03:10:12;;;;;;;6.45;2.10;;;10.00;67.30;;;;;;2112771;28;20021;-73
2020/12/21 03:11:13;;;;;;;5.75;2.05;;;10.00;66.60;;;;;;2111643;28;20510;-74
2020/12/21 03:12:13;;;;;;;7.32;2.05;;;10.00;66.60;;;;;;2112188;28;20023;-73
2020/12/21 03:13:14;;;;;;;4.95;2.10;;;10.00;66.60;;;;;;2103956;28;20031;-73
2020/12/21 03:14:14;;;;;;;4.13;1.90;;;10.00;66.60;;;;;;2104253;28;20077;-73
2020/12/21 03:15:15;;;;;;;5.57;1.83;;;10.00;66.70;;;;;;2112974;28;20012;-75
2020/12/21 03:16:16;;;;;;;3.35;1.80;;;10.00;66.70;;;;;;2103391;28;20082;-74
2020/12/21 03:17:16;;;;;;;3.50;1.92;;;10.00;66.70;;;;;;2103608;28;20453;-73
2020/12/21 03:18:17;;;;;;;4.90;1.80;;;10.00;66.70;;;;;;2111401;28;20074;-74
2020/12/21 03:19:18;;;;;;;4.65;2.13;;;10.00;66.70;;;;;;2112562;28;20032;-74
2020/12/21 03:20:19;;;;;;;3.83;1.80;;;10.00;66.70;;;;;;2112877;28;20480;-74
2020/12/21 03:21:20;;;;;;;2.72;2.13;;;10.00;66.70;;;;;;2112878;28;20088;-73
2020/12/21 03:22:22;;;;;;;3.83;1.70;;;10.00;66.70;;;;;;2112130;28;20157;-74
2020/12/21 03:23:23;;;;;;;7.00;1.90;;;10.00;66.70;;;;;;2113000;28;20024;-74
2020/12/21 03:24:24;;;;;;;3.85;1.60;;;10.00;66.70;;;;;;2103568;28;20201;-74
2020/12/21 03:25:24;;;;;;;4.88;1.63;;;10.00;66.70;;;;;;2103570;28;20040;-73
2020/12/21 03:26:26;;;;;;;4.65;1.73;;;10.00;66.70;;;;;;2112499;28;20453;-75
2020/12/21 03:27:27;;;;;;;5.85;1.70;;;10.00;66.70;;;;;;2112685;28;20031;-73
2020/12/21 03:28:27;;;;;;;5.22;1.80;;;10.00;66.70;;;;;;2112553;28;20097;-73
2020/12/21 03:29:28;;;;;;;2.80;1.52;;;10.00;66.70;;;;;;2112040;27;20514;-74
2020/12/21 03:30:28;;;;;;;4.28;1.52;;;10.00;66.70;;;;;;2112972;28;20619;-73
2020/12/21 03:31:29;;;;;;;3.28;2.00;;;10.00;66.70;;;;;;2111880;28;20433;-73
2020/12/21 03:32:30;;;;;;;3.72;1.58;;;10.00;66.70;;;;;;2111310;28;20621;-75
2020/12/21 03:33:30;;;;;;;5.55;2.20;;;10.00;66.70;;;;;;2112369;28;20517;-74
2020/12/21 03:34:31;;;;;;;4.43;2.00;;;10.00;66.70;;;;;;2112825;28;20042;-73
2020/12/21 03:35:31;;;;;;;4.53;1.92;;;10.00;66.70;;;;;;2112865;28;20063;-73
2020/12/21 03:36:32;;;;;;;5.85;1.98;;;10.00;66.70;;;;;;2112750;28;20023;-73
2020/12/21 03:37:34;;;;;;;3.35;2.00;;;10.00;66.70;;;;;;2112085;28;20496;-73
2020/12/21 03:38:35;;;;;;;5.30;1.88;;;10.00;66.80;;;;;;2112323;28;20024;-74
2020/12/21 03:39:35;;;;;;;4.38;1.65;;;10.00;66.70;;;;;;2111989;28;20027;-74
2020/12/21 03:40:36;;;;;;;3.10;1.60;;;10.00;66.70;;;;;;2113070;28;20047;-73
2020/12/21 03:41:37;;;;;;;2.83;1.73;;;10.00;66.70;;;;;;2112510;28;20100;-73
2020/12/21 03:42:37;;;;;;;4.70;1.67;;;10.00;66.70;;;;;;2112479;28;20027;-73
2020/12/21 03:43:38;;;;;;;3.85;1.98;;;10.00;66.80;;;;;;2112782;28;20042;-74
2020/12/21 03:44:38;;;;;;;4.45;1.55;;;10.00;66.80;;;;;;2112223;28;20039;-73
2020/12/21 03:45:39;;;;;;;5.57;1.85;;;10.00;66.80;;;;;;2112928;28;20405;-73
2020/12/21 03:46:39;;;;;;;2.40;1.60;;;10.00;66.90;;;;;;2111276;28;20027;-74
2020/12/21 03:47:40;;;;;;;3.38;1.65;;;10.00;66.80;;;;;;2111705;28;20035;-74
2020/12/21 03:48:40;;;;;;;4.13;2.05;;;10.00;66.80;;;;;;2102991;28;20059;-73
2020/12/21 03:49:41;;;;;;;8.18;2.05;;;10.10;66.90;;;;;;2104450;28;20135;-73
2020/12/21 03:50:42;;;;;;;5.28;1.70;;;10.00;66.80;;;;;;2112263;28;20024;-74
2020/12/21 03:51:42;;;;;;;6.22;1.90;;;10.00;66.70;;;;;;2113021;28;20034;-74
2020/12/21 03:52:43;;;;;;;3.85;1.67;;;10.10;66.80;;;;;;2111851;28;20031;-73
2020/12/21 03:53:43;;;;;;;6.65;1.70;;;10.10;66.80;;;;;;2103844;28;20626;-74
2020/12/21 03:54:44;;;;;;;3.58;1.80;;;10.10;66.80;;;;;;2103593;28;20351;-73
2020/12/21 03:55:44;;;;;;;4.43;1.67;;;10.10;66.80;;;;;;2112571;28;20031;-73
2020/12/21 03:56:45;;;;;;;3.58;1.50;;;10.00;66.70;;;;;;2112693;28;20023;-75
2020/12/21 03:57:46;;;;;;;7.05;1.80;;;10.10;66.70;;;;;;2112575;28;20032;-73
2020/12/21 03:58:46;;;;;;;3.22;1.60;;;10.00;66.60;;;;;;2111775;28;21384;-73
2020/12/21 03:59:47;;;;;;;3.58;1.80;;;10.10;66.70;;;;;;2112702;28;20032;-74
2020/12/21 04:00:47;;;;;;;4.25;1.70;;;10.10;66.70;;;;;;2112892;28;20035;-73
2020/12/21 04:01:48;;;;;;;2.85;1.83;;;10.00;66.60;;;;;;2112261;28;20081;-74
2020/12/21 04:02:48;;;;;;;3.10;1.70;;;10.10;66.60;;;;;;2111527;28;20446;-74
2020/12/21 04:03:49;;;;;;;5.32;2.17;;;10.10;66.60;;;;;;2111942;28;20642;-74
2020/12/21 04:04:49;;;;;;;5.82;2.10;;;10.10;66.60;;;;;;2112709;28;20126;-74
2020/12/21 04:05:50;;;;;;;4.30;1.90;;;10.10;66.50;;;;;;2112267;28;20020;-74
2020/12/21 04:06:51;;;;;;;4.25;1.83;;;10.10;66.60;;;;;;2113136;28;20077;-74
2020/12/21 04:07:52;;;;;;;6.55;2.10;;;10.00;66.50;;;;;;2111220;28;20446;-74
2020/12/21 04:08:52;;;;;;;3.92;2.22;;;10.00;66.50;;;;;;2112543;28;20027;-75
2020/12/21 04:09:53;;;;;;;4.97;1.85;;;10.10;66.50;;;;;;2112562;28;20016;-74
2020/12/21 04:10:53;;;;;;;6.72;2.00;;;10.10;66.60;;;;;;2113122;28;20559;-74
2020/12/21 04:11:54;;;;;;;5.20;2.17;;;10.10;66.60;;;;;;2114498;28;21802;-74
2020/12/21 04:12:54;;;;;;;5.70;1.98;;;10.10;66.50;;;;;;2114205;28;20468;-74
2020/12/21 04:13:55;;;;;;;5.88;2.03;;;10.10;66.50;;;;;;2114565;28;20432;-74
2020/12/21 04:14:56;;;;;;;2.80;1.90;;;10.10;66.50;;;;;;2113925;28;20529;-74
2020/12/21 04:15:56;;;;;;;5.40;1.90;;;10.10;66.50;;;;;;2114455;28;20405;-74
2020/12/21 04:16:57;;;;;;;4.63;2.15;;;10.10;66.50;;;;;;2113866;28;20857;-73
2020/12/21 04:17:57;;;;;;;4.60;2.20;;;10.00;66.40;;;;;;2114457;28;20453;-74
2020/12/21 04:18:58;;;;;;;4.68;1.90;;;10.10;66.50;;;;;;2113984;28;20495;-73
2020/12/21 04:19:58;;;;;;;2.13;1.83;;;10.10;66.50;;;;;;2105542;28;20510;-74
2020/12/21 04:20:59;;;;;;;5.30;2.20;;;10.10;66.50;;;;;;2105165;28;20034;-74
2020/12/21 04:21:59;;;;;;;4.50;2.05;;;10.10;66.50;;;;;;2114712;28;20031;-74
2020/12/21 04:23:02;;;;;;;5.07;1.80;;;10.10;66.40;;;;;;2113176;28;20042;-74
2020/12/21 04:24:03;;;;;;;6.32;2.13;;;10.10;66.40;;;;;;2113832;28;20027;-75
2020/12/21 04:25:04;;;;;;;6.47;2.08;;;10.10;66.40;;;;;;2114625;28;20062;-75
2020/12/21 04:26:05;;;;;;;6.32;2.08;;;10.10;66.40;;;;;;2114494;28;20027;-75
2020/12/21 04:27:06;;;;;;;3.95;1.90;;;10.10;66.40;;;;;;2114635;28;20034;-73
2020/12/21 04:28:06;;;;;;;3.90;2.38;;;10.10;66.40;;;;;;2113828;28;20035;-74
2020/12/21 04:29:08;;;;;;;4.43;1.98;;;10.20;66.40;;;;;;2113679;28;20038;-74
2020/12/21 04:30:08;;;;;;;8.30;2.30;;;10.10;66.40;;;;;;2113965;28;20043;-75
2020/12/21 04:31:09;;;;;;;5.40;2.03;;;10.10;66.30;;;;;;2105092;28;20028;-75
2020/12/21 04:32:09;;;;;;;4.65;2.20;;;10.20;66.40;;;;;;2105053;28;20024;-73
2020/12/21 04:33:10;;;;;;;3.25;1.70;;;10.10;66.30;;;;;;2114746;28;20027;-76
2020/12/21 04:34:11;;;;;;;6.05;1.95;;;10.20;66.30;;;;;;2114873;28;20489;-77
2020/12/21 04:35:11;;;;;;;5.32;2.00;;;10.20;66.30;;;;;;2114434;28;20043;-75
2020/12/21 04:36:12;;;;;;;5.38;2.45;;;10.20;66.30;;;;;;2114113;28;20039;-75
2020/12/21 04:37:13;;;;;;;9.35;2.13;;;10.20;66.90;;;;;;2114066;28;20031;-74
2020/12/21 04:38:14;;;;;;;5.50;2.13;;;10.20;66.20;;;;;;2114462;28;20027;-73
2020/12/21 04:39:14;;;;;;;12.18;2.63;;;10.20;66.20;;;;;;2112812;28;20072;-74
2020/12/21 04:40:15;;;;;;;4.10;1.90;;;10.20;66.10;;;;;;2114317;28;20020;-74
2020/12/21 04:41:15;;;;;;;3.60;1.88;;;10.20;66.10;;;;;;2112406;28;20036;-74
2020/12/21 04:42:16;;;;;;;4.88;2.00;;;10.20;66.10;;;;;;2114731;28;20055;-74
2020/12/21 04:43:16;;;;;;;5.05;2.22;;;10.20;66.00;;;;;;2113952;28;20117;-74
2020/12/21 04:44:18;;;;;;;4.70;2.10;;;10.20;66.00;;;;;;2104810;28;20649;-74
2020/12/21 04:45:20;;;;;;;4.85;2.05;;;10.20;66.00;;;;;;2105485;28;20032;-74
2020/12/21 04:46:21;;;;;;;4.13;2.15;;;10.20;65.90;;;;;;2112750;28;20016;-73
2020/12/21 04:47:23;;;;;;;6.22;2.22;;;10.20;65.90;;;;;;2114106;28;20032;-73
2020/12/21 04:48:24;;;;;;;3.55;2.00;;;10.20;65.90;;;;;;2114442;28;20020;-74
2020/12/21 04:49:25;;;;;;;7.03;2.30;;;10.30;65.90;;;;;;2113640;28;20081;-73
2020/12/21 04:50:32;;;;;;;6.07;2.15;;;10.20;65.80;;;;;;2105318;28;20402;-74
2020/12/21 04:51:34;;;;;;;5.53;2.45;;;10.20;65.70;;;;;;2106468;28;20039;-73
2020/12/21 04:52:45;;;;;;;6.95;2.10;;;10.20;65.70;;;;;;2113247;28;20548;-74
2020/12/21 04:53:46;;;;;;;8.30;2.80;;;10.20;65.70;;;;;;2113523;28;20038;-72
2020/12/21 04:54:46;;;;;;;6.18;2.00;;;10.20;65.70;;;;;;2114155;28;20032;-74
2020/12/21 04:55:47;;;;;;;3.67;1.80;;;10.20;65.70;;;;;;2113887;28;20039;-74
2020/12/21 04:56:47;;;;;;;6.53;2.10;;;10.20;65.70;;;;;;2113937;28;20035;-74
2020/12/21 04:58:02;;;;;;;6.65;1.92;;;10.20;65.70;;;;;;2113726;28;20024;-74
2020/12/21 04:59:03;;;;;;;6.03;2.22;;;10.30;65.60;;;;;;2103585;28;20115;-74
2020/12/21 05:00:05;;;;;;;4.78;2.25;;;10.30;65.60;;;;;;2104904;28;20043;-74
2020/12/21 05:01:06;;;;;;;8.05;2.28;;;10.30;65.50;;;;;;2113626;28;20031;-74
2020/12/21 05:02:06;;;;;;;6.70;2.08;;;10.30;65.50;;;;;;2113527;28;20028;-74
2020/12/21 05:03:08;;;;;;;6.70;2.38;;;10.20;65.40;;;;;;2113805;28;20525;-75
2020/12/21 05:04:08;;;;;;;7.85;2.20;;;10.20;65.40;;;;;;2113294;28;20089;-74
2020/12/21 05:05:09;;;;;;;9.65;2.88;;;10.20;65.40;;;;;;2113851;28;20080;-74
2020/12/21 05:06:09;;;;;;;8.77;2.08;;;10.20;65.40;;;;;;2113182;28;20024;-74
2020/12/21 05:07:10;;;;;;;2.85;1.80;;;10.20;65.40;;;;;;2113805;28;20024;-73
2020/12/21 05:08:14;;;;;;;4.80;2.00;;;10.20;65.40;;;;;;2113741;28;20031;-74
2020/12/21 05:09:15;;;;;;;5.32;2.03;;;10.30;65.40;;;;;;2112765;28;20461;-74
2020/12/21 05:10:15;;;;;;;7.70;2.25;;;10.20;65.40;;;;;;2113926;28;20058;-74
2020/12/21 05:11:16;;;;;;;5.32;1.80;;;10.20;65.40;;;;;;2113507;28;20030;-74
2020/12/21 05:12:16;;;;;;;3.67;1.83;;;10.20;65.30;;;;;;2113993;28;20020;-73
2020/12/21 05:13:17;;;;;;;7.65;1.92;;;10.20;65.30;;;;;;2113495;28;20043;-74
2020/12/21 05:14:17;;;;;;;5.20;2.40;;;10.20;65.30;;;;;;2113777;28;20108;-74
2020/12/21 05:15:20;;;;;;;5.85;1.90;;;10.20;65.30;;;;;;2113930;28;20036;-74
2020/12/21 05:16:24;;;;;;;4.70;1.85;;;10.20;65.20;;;;;;2112613;28;20072;-73
2020/12/21 05:17:25;;;;;;;6.18;1.98;;;10.20;65.30;;;;;;2113843;28;20096;-74